createdAt,value
2018-04-11T00:00:24.346Z,946.98
2018-04-11T00:01:24.361Z,946.95
2018-04-11T00:02:24.393Z,946.99
2018-04-11T00:03:24.403Z,946.98
2018-04-11T00:04:24.423Z,947
2018-04-11T00:05:24.443Z,946.94
2018-04-11T00:06:24.465Z,946.99
2018-04-11T00:07:24.486Z,946.99
2018-04-11T00:08:24.506Z,947
2018-04-11T00:09:24.528Z,946.97
2018-04-11T00:10:24.597Z,946.96
2018-04-11T00:11:24.568Z,947.02
2018-04-11T00:12:24.590Z,947.01
2018-04-11T00:13:24.609Z,946.97
2018-04-11T00:14:24.630Z,947.02
2018-04-11T00:15:24.701Z,947.02
2018-04-11T00:16:24.671Z,947.01
2018-04-11T00:17:24.693Z,946.97
2018-04-11T00:18:24.712Z,946.98
2018-04-11T00:19:24.739Z,946.95
2018-04-11T00:20:24.752Z,947
2018-04-11T00:21:24.774Z,947.06
2018-04-11T00:22:24.796Z,947.01
2018-04-11T00:23:24.818Z,946.97
2018-04-11T00:24:24.836Z,946.99
2018-04-11T00:25:24.857Z,947.03
2018-04-11T00:26:24.877Z,947.08
2018-04-11T00:27:24.898Z,947.09
2018-04-11T00:28:24.919Z,947.12
2018-04-11T00:29:24.939Z,947.11
2018-04-11T00:30:25.006Z,947.09
2018-04-11T00:31:24.975Z,947.13
2018-04-11T00:32:24.997Z,947.15
2018-04-11T00:33:25.014Z,947.12
2018-04-11T00:34:25.036Z,947.14
2018-04-11T00:35:25.058Z,947.14
2018-04-11T00:36:25.073Z,947.12
2018-04-11T00:37:25.092Z,947.13
2018-04-11T00:38:25.113Z,947.15
2018-04-11T00:39:25.130Z,947.15
2018-04-11T00:40:25.151Z,947.18
2018-04-11T00:41:25.173Z,947.16
2018-04-11T00:42:25.190Z,947.14
2018-04-11T00:43:25.215Z,947.16
2018-04-11T00:44:25.231Z,947.14
2018-04-11T00:45:25.303Z,947.1
2018-04-11T00:46:25.320Z,947.09
2018-04-11T00:47:25.293Z,947.08
2018-04-11T00:48:25.312Z,947.05
2018-04-11T00:49:25.363Z,947.08
2018-04-11T00:50:25.353Z,947
2018-04-11T00:51:25.371Z,947.12
2018-04-11T00:52:25.393Z,947.12
2018-04-11T00:53:25.418Z,947.12
2018-04-11T00:54:25.431Z,947.1
2018-04-11T00:55:25.475Z,947.14
2018-04-11T00:56:25.472Z,947.13
2018-04-11T00:57:25.490Z,947.16
2018-04-11T00:58:25.513Z,947.12
2018-04-11T00:59:25.531Z,947.11
2018-04-11T01:00:25.599Z,947.08
2018-04-11T01:01:25.569Z,947.07
2018-04-11T01:02:25.591Z,947.11
2018-04-11T01:03:25.612Z,947.09
2018-04-11T01:04:25.628Z,947.07
2018-04-11T01:05:25.647Z,947.07
2018-04-11T01:06:25.667Z,947.15
2018-04-11T01:07:25.688Z,947.09
2018-04-11T01:08:25.706Z,947.12
2018-04-11T01:09:25.725Z,947.14
2018-04-11T01:10:25.757Z,947.13
2018-04-11T01:11:25.764Z,947.12
2018-04-11T01:12:25.783Z,947.14
2018-04-11T01:13:25.804Z,947.17
2018-04-11T01:14:25.837Z,947.15
2018-04-11T01:15:25.894Z,947.19
2018-04-11T01:16:25.864Z,947.18
2018-04-11T01:17:25.884Z,947.17
2018-04-11T01:18:25.904Z,947.18
2018-04-11T01:19:25.927Z,947.18
2018-04-11T01:20:25.943Z,947.19
2018-04-11T01:21:25.964Z,947.18
2018-04-11T01:22:25.984Z,947.17
2018-04-11T01:23:26.003Z,947.1
2018-04-11T01:24:26.022Z,947.16
2018-04-11T01:25:26.048Z,947.18
2018-04-11T01:26:26.062Z,947.24
2018-04-11T01:27:26.083Z,947.22
2018-04-11T01:28:26.102Z,947.28
2018-04-11T01:29:26.121Z,947.3
2018-04-11T01:30:26.194Z,947.31
2018-04-11T01:31:26.159Z,947.29
2018-04-11T01:32:26.181Z,947.35
2018-04-11T01:33:26.201Z,947.35
2018-04-11T01:34:26.220Z,947.35
2018-04-11T01:35:26.243Z,947.3
2018-04-11T01:36:26.258Z,947.34
2018-04-11T01:37:26.278Z,947.33
2018-04-11T01:38:26.298Z,947.26
2018-04-11T01:39:26.317Z,947.23
2018-04-11T01:40:26.340Z,947.24
2018-04-11T01:41:26.360Z,947.26
2018-04-11T01:42:26.379Z,947.22
2018-04-11T01:43:26.396Z,947.25
2018-04-11T01:44:26.414Z,947.29
2018-04-11T01:45:26.486Z,947.25
2018-04-11T01:46:26.454Z,947.29
2018-04-11T01:47:26.475Z,947.24
2018-04-11T01:48:26.493Z,947.3
2018-04-11T01:49:26.514Z,947.26
2018-04-11T01:50:26.535Z,947.25
2018-04-11T01:51:26.551Z,947.27
2018-04-11T01:52:26.570Z,947.29
2018-04-11T01:53:26.591Z,947.23
2018-04-11T01:54:26.611Z,947.2
2018-04-11T01:55:26.633Z,947.23
2018-04-11T01:56:26.652Z,947.19
2018-04-11T01:57:26.672Z,947.19
2018-04-11T01:58:26.699Z,947.17
2018-04-11T01:59:26.713Z,947.21
2018-04-11T02:00:26.785Z,947.18
2018-04-11T02:01:26.756Z,947.15
2018-04-11T02:02:26.773Z,947.17
2018-04-11T02:03:26.792Z,947.18
2018-04-11T02:04:26.812Z,947.17
2018-04-11T02:05:26.834Z,947.19
2018-04-11T02:06:26.853Z,947.23
2018-04-11T02:07:26.872Z,947.17
2018-04-11T02:08:26.892Z,947.19
2018-04-11T02:09:26.914Z,947.2
2018-04-11T02:10:26.983Z,947.21
2018-04-11T02:11:26.954Z,947.24
2018-04-11T02:12:26.974Z,947.23
2018-04-11T02:13:26.992Z,947.25
2018-04-11T02:14:27.011Z,947.25
2018-04-11T02:15:27.084Z,947.3
2018-04-11T02:16:27.052Z,947.32
2018-04-11T02:17:27.070Z,947.28
2018-04-11T02:18:27.105Z,947.29
2018-04-11T02:19:27.116Z,947.32
2018-04-11T02:20:27.133Z,947.3
2018-04-11T02:21:27.153Z,947.3
2018-04-11T02:22:27.174Z,947.3
2018-04-11T02:23:27.194Z,947.31
2018-04-11T02:24:27.212Z,947.31
2018-04-11T02:25:27.234Z,947.31
2018-04-11T02:26:27.259Z,947.35
2018-04-11T02:27:27.276Z,947.35
2018-04-11T02:28:27.295Z,947.35
2018-04-11T02:29:27.314Z,947.38
2018-04-11T02:30:27.386Z,947.36
2018-04-11T02:31:27.355Z,947.38
2018-04-11T02:32:27.375Z,947.39
2018-04-11T02:33:27.397Z,947.39
2018-04-11T02:34:27.418Z,947.37
2018-04-11T02:35:27.436Z,947.35
2018-04-11T02:36:27.458Z,947.37
2018-04-11T02:37:27.488Z,947.35
2018-04-11T02:38:27.499Z,947.33
2018-04-11T02:39:27.521Z,947.34
2018-04-11T02:40:27.589Z,947.35
2018-04-11T02:41:27.560Z,947.32
2018-04-11T02:42:27.581Z,947.35
2018-04-11T02:43:27.601Z,947.32
2018-04-11T02:44:27.622Z,947.35
2018-04-11T02:45:27.641Z,947.36
2018-04-11T02:46:27.660Z,947.36
2018-04-11T02:47:27.680Z,947.37
2018-04-11T02:48:27.703Z,947.42
2018-04-11T02:49:27.727Z,947.41
2018-04-11T02:50:27.738Z,947.42
2018-04-11T02:51:27.759Z,947.42
2018-04-11T02:52:27.782Z,947.46
2018-04-11T02:53:27.803Z,947.46
2018-04-11T02:54:27.822Z,947.51
2018-04-11T02:55:27.893Z,947.52
2018-04-11T02:56:27.864Z,947.53
2018-04-11T02:57:27.884Z,947.49
2018-04-11T02:58:27.903Z,947.48
2018-04-11T02:59:27.926Z,947.47
2018-04-11T03:00:27.945Z,947.44
2018-04-11T03:01:27.963Z,947.46
2018-04-11T03:02:27.985Z,947.42
2018-04-11T03:03:28.005Z,947.4
2018-04-11T03:04:28.025Z,947.46
2018-04-11T03:05:28.049Z,947.41
2018-04-11T03:06:28.064Z,947.4
2018-04-11T03:07:28.087Z,947.36
2018-04-11T03:08:28.104Z,947.36
2018-04-11T03:09:28.127Z,947.33
2018-04-11T03:10:28.196Z,947.34
2018-04-11T03:11:28.176Z,947.27
2018-04-11T03:12:28.186Z,947.25
2018-04-11T03:13:28.211Z,947.26
2018-04-11T03:14:28.226Z,947.27
2018-04-11T03:15:28.245Z,947.27
2018-04-11T03:16:28.306Z,947.25
2018-04-11T03:17:28.285Z,947.2
2018-04-11T03:18:28.305Z,947.23
2018-04-11T03:19:28.324Z,947.19
2018-04-11T03:20:28.344Z,947.24
2018-04-11T03:21:28.363Z,947.23
2018-04-11T03:22:28.383Z,947.21
2018-04-11T03:23:28.401Z,947.21
2018-04-11T03:24:28.421Z,947.19
2018-04-11T03:25:28.490Z,947.15
2018-04-11T03:26:28.462Z,947.09
2018-04-11T03:27:28.480Z,947.06
2018-04-11T03:28:28.500Z,946.96
2018-04-11T03:29:28.520Z,946.89
2018-04-11T03:30:28.540Z,946.77
2018-04-11T03:31:28.565Z,946.78
2018-04-11T03:32:28.578Z,946.73
2018-04-11T03:33:28.633Z,946.69
2018-04-11T03:34:28.618Z,946.7
2018-04-11T03:35:28.639Z,946.75
2018-04-11T03:36:28.659Z,946.79
2018-04-11T03:37:28.677Z,946.83
2018-04-11T03:38:28.699Z,946.83
2018-04-11T03:39:28.718Z,946.89
2018-04-11T03:40:28.787Z,946.97
2018-04-11T03:41:28.760Z,947.01
2018-04-11T03:42:28.779Z,947.04
2018-04-11T03:43:28.796Z,947.11
2018-04-11T03:44:28.817Z,947.18
2018-04-11T03:45:28.836Z,947.19
2018-04-11T03:46:28.858Z,947.26
2018-04-11T03:47:28.880Z,947.26
2018-04-11T03:48:28.894Z,947.31
2018-04-11T03:49:28.914Z,947.34
2018-04-11T03:50:28.935Z,947.33
2018-04-11T03:51:28.957Z,947.37
2018-04-11T03:52:28.974Z,947.39
2018-04-11T03:53:28.994Z,947.43
2018-04-11T03:54:29.013Z,947.4
2018-04-11T03:55:29.083Z,947.41
2018-04-11T03:56:29.054Z,947.45
2018-04-11T03:57:29.080Z,947.45
2018-04-11T03:58:29.092Z,947.47
2018-04-11T03:59:29.111Z,947.44
2018-04-11T04:00:29.136Z,947.4
2018-04-11T04:01:29.151Z,947.4
2018-04-11T04:02:29.170Z,947.43
2018-04-11T04:03:29.187Z,947.44
2018-04-11T04:04:29.209Z,947.41
2018-04-11T04:05:29.228Z,947.4
2018-04-11T04:06:29.248Z,947.42
2018-04-11T04:07:29.266Z,947.41
2018-04-11T04:08:29.286Z,947.38
2018-04-11T04:09:29.316Z,947.42
2018-04-11T04:10:29.384Z,947.43
2018-04-11T04:11:29.347Z,947.45
2018-04-11T04:12:29.369Z,947.45
2018-04-11T04:13:29.387Z,947.45
2018-04-11T04:14:29.410Z,947.45
2018-04-11T04:15:29.425Z,947.48
2018-04-11T04:16:29.445Z,947.45
2018-04-11T04:17:29.467Z,947.45
2018-04-11T04:18:29.484Z,947.43
2018-04-11T04:19:29.525Z,947.43
2018-04-11T04:20:29.524Z,947.48
2018-04-11T04:21:29.544Z,947.43
2018-04-11T04:22:29.568Z,947.43
2018-04-11T04:23:29.584Z,947.42
2018-04-11T04:24:29.603Z,947.45
2018-04-11T04:25:29.676Z,947.46
2018-04-11T04:26:29.644Z,947.43
2018-04-11T04:27:29.663Z,947.44
2018-04-11T04:28:29.682Z,947.51
2018-04-11T04:29:29.704Z,947.48
2018-04-11T04:30:29.723Z,947.49
2018-04-11T04:31:29.743Z,947.49
2018-04-11T04:32:29.762Z,947.46
2018-04-11T04:33:29.783Z,947.51
2018-04-11T04:34:29.805Z,947.51
2018-04-11T04:35:29.823Z,947.54
2018-04-11T04:36:29.842Z,947.51
2018-04-11T04:37:29.865Z,947.52
2018-04-11T04:38:29.880Z,947.52
2018-04-11T04:39:29.900Z,947.51
2018-04-11T04:40:30.070Z,947.54
2018-04-11T04:41:29.941Z,947.55
2018-04-11T04:42:29.959Z,947.52
2018-04-11T04:43:30.030Z,947.57
2018-04-11T04:44:29.999Z,947.51
2018-04-11T04:45:30.019Z,947.56
2018-04-11T04:46:30.039Z,947.54
2018-04-11T04:47:30.058Z,947.53
2018-04-11T04:48:30.080Z,947.46
2018-04-11T04:49:30.102Z,947.51
2018-04-11T04:50:30.116Z,947.42
2018-04-11T04:51:30.137Z,947.42
2018-04-11T04:52:30.156Z,947.46
2018-04-11T04:53:30.177Z,947.43
2018-04-11T04:54:30.194Z,947.38
2018-04-11T04:55:30.214Z,947.37
2018-04-11T04:56:30.235Z,947.4
2018-04-11T04:57:30.254Z,947.39
2018-04-11T04:58:30.274Z,947.42
2018-04-11T04:59:30.294Z,947.47
2018-04-11T05:00:30.314Z,947.46
2018-04-11T05:01:30.333Z,947.45
2018-04-11T05:02:30.352Z,947.49
2018-04-11T05:03:30.372Z,947.45
2018-04-11T05:04:30.392Z,947.51
2018-04-11T05:05:30.412Z,947.54
2018-04-11T05:06:30.430Z,947.5
2018-04-11T05:07:30.454Z,947.51
2018-04-11T05:08:30.469Z,947.45
2018-04-11T05:09:30.489Z,947.49
2018-04-11T05:10:30.509Z,947.51
2018-04-11T05:11:30.529Z,947.49
2018-04-11T05:12:30.548Z,947.53
2018-04-11T05:13:30.570Z,947.52
2018-04-11T05:14:30.588Z,947.53
2018-04-11T05:15:30.611Z,947.55
2018-04-11T05:16:30.625Z,947.54
2018-04-11T05:17:30.645Z,947.53
2018-04-11T05:18:30.667Z,947.52
2018-04-11T05:19:30.690Z,947.51
2018-04-11T05:20:30.704Z,947.49
2018-04-11T05:21:30.726Z,947.51
2018-04-11T05:22:30.744Z,947.51
2018-04-11T05:23:30.763Z,947.5
2018-04-11T05:24:30.783Z,947.49
2018-04-11T05:25:30.853Z,947.47
2018-04-11T05:26:30.824Z,947.47
2018-04-11T05:27:30.843Z,947.43
2018-04-11T05:28:30.863Z,947.42
2018-04-11T05:29:30.883Z,947.44
2018-04-11T05:30:30.903Z,947.45
2018-04-11T05:31:30.922Z,947.48
2018-04-11T05:32:30.942Z,947.53
2018-04-11T05:33:30.962Z,947.57
2018-04-11T05:34:30.982Z,947.56
2018-04-11T05:35:31.000Z,947.5
2018-04-11T05:36:31.022Z,947.52
2018-04-11T05:37:31.042Z,947.53
2018-04-11T05:38:31.063Z,947.56
2018-04-11T05:39:31.080Z,947.57
2018-04-11T05:40:31.151Z,947.56
2018-04-11T05:41:31.120Z,947.62
2018-04-11T05:42:31.159Z,947.58
2018-04-11T05:43:31.162Z,947.62
2018-04-11T05:44:31.181Z,947.64
2018-04-11T05:45:31.200Z,947.64
2018-04-11T05:46:31.220Z,947.64
2018-04-11T05:47:31.242Z,947.59
2018-04-11T05:48:31.260Z,947.58
2018-04-11T05:49:31.282Z,947.57
2018-04-11T05:50:31.298Z,947.62
2018-04-11T05:51:31.319Z,947.6
2018-04-11T05:52:31.340Z,947.63
2018-04-11T05:53:31.358Z,947.64
2018-04-11T05:54:31.379Z,947.57
2018-04-11T05:55:31.449Z,947.6
2018-04-11T05:56:31.416Z,947.57
2018-04-11T05:57:31.441Z,947.52
2018-04-11T05:58:31.457Z,947.52
2018-04-11T05:59:31.478Z,947.55
2018-04-11T06:00:31.548Z,947.52
2018-04-11T06:01:31.517Z,947.51
2018-04-11T06:02:31.536Z,947.46
2018-04-11T06:03:31.556Z,947.38
2018-04-11T06:04:31.581Z,947.47
2018-04-11T06:05:31.597Z,947.45
2018-04-11T06:06:31.618Z,947.48
2018-04-11T06:07:31.637Z,947.42
2018-04-11T06:08:31.658Z,947.45
2018-04-11T06:09:31.677Z,947.49
2018-04-11T06:10:31.698Z,947.46
2018-04-11T06:11:31.717Z,947.46
2018-04-11T06:12:31.739Z,947.45
2018-04-11T06:13:31.758Z,947.44
2018-04-11T06:14:31.778Z,947.45
2018-04-11T06:15:31.798Z,947.43
2018-04-11T06:16:31.817Z,947.4
2018-04-11T06:17:31.839Z,947.45
2018-04-11T06:18:31.860Z,947.45
2018-04-11T06:19:31.878Z,947.42
2018-04-11T06:20:31.898Z,947.39
2018-04-11T06:21:31.919Z,947.36
2018-04-11T06:22:31.937Z,947.39
2018-04-11T06:23:31.960Z,947.39
2018-04-11T06:24:31.978Z,947.38
2018-04-11T06:25:31.997Z,947.36
2018-04-11T06:26:32.018Z,947.36
2018-04-11T06:27:32.038Z,947.35
2018-04-11T06:28:32.058Z,947.39
2018-04-11T06:29:32.076Z,947.37
2018-04-11T06:30:32.098Z,947.39
2018-04-11T06:31:32.119Z,947.38
2018-04-11T06:32:32.141Z,947.38
2018-04-11T06:33:32.160Z,947.4
2018-04-11T06:34:32.180Z,947.37
2018-04-11T06:35:32.201Z,947.39
2018-04-11T06:36:32.218Z,947.39
2018-04-11T06:37:32.240Z,947.42
2018-04-11T06:38:32.261Z,947.41
2018-04-11T06:39:32.280Z,947.43
2018-04-11T06:40:32.301Z,947.49
2018-04-11T06:41:32.321Z,947.41
2018-04-11T06:42:32.342Z,947.45
2018-04-11T06:43:32.366Z,947.45
2018-04-11T06:44:32.380Z,947.43
2018-04-11T06:45:32.402Z,947.43
2018-04-11T06:46:32.423Z,947.49
2018-04-11T06:47:32.442Z,947.39
2018-04-11T06:48:32.463Z,947.44
2018-04-11T06:49:32.484Z,947.38
2018-04-11T06:50:32.507Z,947.45
2018-04-11T06:51:32.523Z,947.42
2018-04-11T06:52:32.542Z,947.42
2018-04-11T06:53:32.566Z,947.44
2018-04-11T06:54:32.593Z,947.47
2018-04-11T06:55:32.607Z,947.45
2018-04-11T06:56:32.677Z,947.47
2018-04-11T06:57:32.648Z,947.48
2018-04-11T06:58:32.667Z,947.47
2018-04-11T06:59:32.688Z,947.45
2018-04-11T07:00:32.713Z,947.44
2018-04-11T07:01:32.781Z,947.46
2018-04-11T07:02:32.752Z,947.46
2018-04-11T07:03:32.771Z,947.49
2018-04-11T07:04:32.792Z,947.5
2018-04-11T07:05:32.813Z,947.48
2018-04-11T07:06:32.834Z,947.45
2018-04-11T07:07:32.856Z,947.46
2018-04-11T07:08:32.877Z,947.41
2018-04-11T07:09:32.916Z,947.47
2018-04-11T07:10:32.918Z,947.4
2018-04-11T07:11:32.959Z,947.4
2018-04-11T07:12:32.960Z,947.41
2018-04-11T07:13:32.980Z,947.39
2018-04-11T07:14:33.003Z,947.42
2018-04-11T07:15:33.026Z,947.42
2018-04-11T07:16:33.096Z,947.4
2018-04-11T07:17:33.068Z,947.38
2018-04-11T07:18:33.089Z,947.36
2018-04-11T07:19:33.113Z,947.34
2018-04-11T07:20:33.133Z,947.34
2018-04-11T07:21:33.160Z,947.35
2018-04-11T07:22:33.174Z,947.36
2018-04-11T07:23:33.195Z,947.36
2018-04-11T07:24:33.218Z,947.41
2018-04-11T07:25:33.237Z,947.36
2018-04-11T07:26:33.258Z,947.32
2018-04-11T07:27:33.280Z,947.37
2018-04-11T07:28:33.306Z,947.34
2018-04-11T07:29:33.323Z,947.33
2018-04-11T07:30:33.344Z,947.35
2018-04-11T07:31:33.415Z,947.32
2018-04-11T07:32:33.387Z,947.37
2018-04-11T07:33:33.408Z,947.33
2018-04-11T07:34:33.429Z,947.34
2018-04-11T07:35:33.454Z,947.34
2018-04-11T07:36:33.473Z,947.36
2018-04-11T07:37:33.495Z,947.36
2018-04-11T07:38:33.515Z,947.37
2018-04-11T07:39:33.540Z,947.39
2018-04-11T07:40:33.565Z,947.39
2018-04-11T07:41:33.683Z,947.38
2018-04-11T07:42:33.604Z,947.38
2018-04-11T07:43:33.626Z,947.35
2018-04-11T07:44:33.648Z,947.37
2018-04-11T07:45:33.671Z,947.34
2018-04-11T07:46:33.741Z,947.3
2018-04-11T07:47:33.718Z,947.34
2018-04-11T07:48:33.735Z,947.34
2018-04-11T07:49:33.757Z,947.32
2018-04-11T07:50:33.778Z,947.33
2018-04-11T07:51:33.808Z,947.37
2018-04-11T07:52:33.821Z,947.38
2018-04-11T07:53:33.844Z,947.33
2018-04-11T07:54:33.958Z,947.37
2018-04-11T07:55:33.892Z,947.38
2018-04-11T07:56:33.912Z,947.34
2018-04-11T07:57:33.933Z,947.32
2018-04-11T07:58:33.956Z,947.31
2018-04-11T07:59:33.978Z,947.34
2018-04-11T08:00:33.999Z,947.32
2018-04-11T08:01:34.113Z,947.32
2018-04-11T08:02:34.045Z,947.3
2018-04-11T08:03:34.131Z,947.33
2018-04-11T08:04:34.088Z,947.31
2018-04-11T08:05:34.110Z,947.31
2018-04-11T08:06:34.184Z,947.29
2018-04-11T08:07:34.159Z,947.32
2018-04-11T08:08:34.179Z,947.34
2018-04-11T08:09:34.208Z,947.34
2018-04-11T08:10:34.223Z,947.32
2018-04-11T08:11:34.396Z,947.28
2018-04-11T08:12:34.269Z,947.31
2018-04-11T08:13:34.289Z,947.26
2018-04-11T08:14:34.313Z,947.24
2018-04-11T08:15:34.339Z,947.24
2018-04-11T08:16:34.357Z,947.25
2018-04-11T08:17:34.381Z,947.27
2018-04-11T08:18:34.402Z,947.25
2018-04-11T08:19:34.425Z,947.25
2018-04-11T08:20:34.447Z,947.19
2018-04-11T08:21:34.521Z,947.23
2018-04-11T08:22:34.512Z,947.21
2018-04-11T08:23:34.516Z,947.21
2018-04-11T08:24:34.537Z,947.21
2018-04-11T08:25:34.561Z,947.22
2018-04-11T08:26:34.584Z,947.2
2018-04-11T08:27:34.605Z,947.16
2018-04-11T08:28:34.631Z,947.19
2018-04-11T08:29:34.653Z,947.22
2018-04-11T08:30:34.675Z,947.22
2018-04-11T08:31:34.699Z,947.23
2018-04-11T08:32:34.720Z,947.2
2018-04-11T08:33:34.745Z,947.23
2018-04-11T08:34:34.767Z,947.17
2018-04-11T08:35:34.791Z,947.15
2018-04-11T08:36:34.871Z,947.13
2018-04-11T08:37:34.837Z,947.11
2018-04-11T08:38:34.859Z,947.14
2018-04-11T08:39:34.884Z,947.13
2018-04-11T08:40:34.907Z,947.17
2018-04-11T08:41:34.929Z,947.09
2018-04-11T08:42:34.954Z,947.11
2018-04-11T08:43:34.978Z,947.1
2018-04-11T08:44:34.999Z,947.16
2018-04-11T08:45:35.033Z,947.18
2018-04-11T08:46:35.048Z,947.13
2018-04-11T08:47:35.072Z,947.22
2018-04-11T08:48:35.093Z,947.16
2018-04-11T08:49:35.117Z,947.15
2018-04-11T08:50:35.141Z,947.15
2018-04-11T08:51:35.165Z,947.18
2018-04-11T08:52:35.257Z,947.13
2018-04-11T08:53:35.230Z,947.13
2018-04-11T08:54:35.233Z,947.15
2018-04-11T08:55:35.256Z,947.09
2018-04-11T08:56:35.280Z,947.09
2018-04-11T08:57:35.340Z,947.09
2018-04-11T08:58:35.426Z,947.16
2018-04-11T08:59:35.350Z,947.14
2018-04-11T09:00:35.374Z,947.15
2018-04-11T09:01:35.398Z,947.16
2018-04-11T09:02:35.422Z,947.17
2018-04-11T09:03:35.447Z,947.13
2018-04-11T09:04:35.481Z,947.13
2018-04-11T09:05:35.497Z,947.12
2018-04-11T09:06:35.521Z,947.09
2018-04-11T09:07:35.542Z,947.11
2018-04-11T09:08:35.618Z,947.09
2018-04-11T09:09:35.594Z,947.13
2018-04-11T09:10:35.617Z,947.14
2018-04-11T09:11:35.639Z,947.12
2018-04-11T09:12:35.664Z,947.12
2018-04-11T09:13:35.688Z,947.11
2018-04-11T09:14:35.713Z,947.15
2018-04-11T09:15:35.738Z,947.13
2018-04-11T09:16:35.760Z,947.16
2018-04-11T09:17:35.785Z,947.12
2018-04-11T09:18:35.809Z,947.12
2018-04-11T09:19:35.888Z,947.07
2018-04-11T09:20:35.859Z,947.09
2018-04-11T09:21:35.881Z,947.04
2018-04-11T09:22:35.908Z,947.11
2018-04-11T09:23:35.983Z,947.05
2018-04-11T09:24:35.960Z,947.06
2018-04-11T09:25:35.982Z,947.02
2018-04-11T09:26:36.008Z,947.01
2018-04-11T09:27:36.034Z,947.02
2018-04-11T09:28:36.059Z,947.08
2018-04-11T09:29:36.085Z,947.06
2018-04-11T09:30:36.115Z,946.96
2018-04-11T09:31:36.140Z,946.96
2018-04-11T09:32:36.169Z,947.04
2018-04-11T09:33:36.194Z,947.02
2018-04-11T09:34:36.220Z,947.05
2018-04-11T09:35:36.246Z,947.05
2018-04-11T09:36:36.275Z,947.02
2018-04-11T09:37:36.304Z,947.07
2018-04-11T09:38:36.386Z,947.06
2018-04-11T09:39:36.359Z,947.06
2018-04-11T09:40:36.386Z,946.99
2018-04-11T09:41:36.416Z,947
2018-04-11T09:42:36.444Z,947.02
2018-04-11T09:43:36.475Z,946.98
2018-04-11T09:44:36.506Z,946.98
2018-04-11T09:45:36.530Z,946.94
2018-04-11T09:46:36.559Z,946.92
2018-04-11T09:47:36.588Z,946.96
2018-04-11T09:48:36.738Z,947.01
2018-04-11T09:49:36.646Z,946.99
2018-04-11T09:50:36.675Z,946.96
2018-04-11T09:51:36.704Z,946.97
2018-04-11T09:52:36.735Z,947.01
2018-04-11T09:53:36.814Z,947.06
2018-04-11T09:54:36.793Z,947.02
2018-04-11T09:55:36.821Z,947.12
2018-04-11T09:56:36.853Z,947.11
2018-04-11T09:57:36.881Z,947.06
2018-04-11T09:58:36.914Z,947.05
2018-04-11T09:59:36.942Z,946.98
2018-04-11T10:00:36.972Z,946.93
2018-04-11T10:01:36.999Z,946.99
2018-04-11T10:02:37.032Z,946.92
2018-04-11T10:03:37.061Z,946.99
2018-04-11T10:04:37.091Z,946.95
2018-04-11T10:05:37.118Z,946.92
2018-04-11T10:06:37.147Z,946.93
2018-04-11T10:07:37.177Z,946.95
2018-04-11T10:08:37.256Z,946.92
2018-04-11T10:09:37.235Z,946.91
2018-04-11T10:10:37.265Z,946.94
2018-04-11T10:11:37.298Z,946.89
2018-04-11T10:12:37.325Z,946.96
2018-04-11T10:13:37.409Z,946.91
2018-04-11T10:14:37.383Z,946.99
2018-04-11T10:15:37.412Z,946.96
2018-04-11T10:16:37.442Z,946.93
2018-04-11T10:17:37.476Z,946.9
2018-04-11T10:18:37.501Z,946.92
2018-04-11T10:19:37.530Z,946.87
2018-04-11T10:20:37.561Z,946.8
2018-04-11T10:21:37.594Z,946.85
2018-04-11T10:22:37.622Z,946.91
2018-04-11T10:23:37.651Z,946.93
2018-04-11T10:24:37.681Z,946.96
2018-04-11T10:25:37.711Z,946.96
2018-04-11T10:26:37.742Z,946.91
2018-04-11T10:27:37.772Z,946.88
2018-04-11T10:28:37.852Z,946.84
2018-04-11T10:29:37.842Z,946.92
2018-04-11T10:30:37.863Z,946.79
2018-04-11T10:31:37.895Z,946.77
2018-04-11T10:32:37.929Z,946.83
2018-04-11T10:33:37.985Z,946.84
2018-04-11T10:34:37.985Z,946.83
2018-04-11T10:35:38.017Z,946.8
2018-04-11T10:36:38.049Z,946.84
2018-04-11T10:37:38.081Z,946.76
2018-04-11T10:38:38.112Z,946.73
2018-04-11T10:39:38.149Z,946.75
2018-04-11T10:40:38.174Z,946.72
2018-04-11T10:41:38.205Z,946.65
2018-04-11T10:42:38.238Z,946.65
2018-04-11T10:43:38.418Z,946.6
2018-04-11T10:44:38.307Z,946.66
2018-04-11T10:45:38.332Z,946.66
2018-04-11T10:46:38.362Z,946.64
2018-04-11T10:47:38.394Z,946.6
2018-04-11T10:48:38.426Z,946.57
2018-04-11T10:49:38.457Z,946.67
2018-04-11T10:50:38.493Z,946.58
2018-04-11T10:51:38.522Z,946.55
2018-04-11T10:52:38.552Z,946.52
2018-04-11T10:53:38.582Z,946.51
2018-04-11T10:54:38.615Z,946.64
2018-04-11T10:55:38.645Z,946.6
2018-04-11T10:56:38.675Z,946.68
2018-04-11T10:57:38.707Z,946.66
2018-04-11T10:58:38.788Z,946.66
2018-04-11T10:59:38.767Z,946.73
2018-04-11T11:00:38.799Z,946.73
2018-04-11T11:01:38.831Z,946.69
2018-04-11T11:02:38.866Z,946.7
2018-04-11T11:03:38.895Z,946.75
2018-04-11T11:04:38.925Z,946.69
2018-04-11T11:05:38.958Z,946.68
2018-04-11T11:06:38.992Z,946.66
2018-04-11T11:07:39.022Z,946.59
2018-04-11T11:08:39.108Z,946.71
2018-04-11T11:09:39.139Z,946.6
2018-04-11T11:10:39.121Z,946.63
2018-04-11T11:11:39.155Z,946.62
2018-04-11T11:12:39.189Z,946.67
2018-04-11T11:13:39.221Z,946.66
2018-04-11T11:14:39.256Z,946.5
2018-04-11T11:15:39.288Z,946.55
2018-04-11T11:16:39.321Z,946.65
2018-04-11T11:17:39.356Z,946.58
2018-04-11T11:18:39.386Z,946.6
2018-04-11T11:19:39.421Z,946.57
2018-04-11T11:20:39.453Z,946.56
2018-04-11T11:21:39.487Z,946.49
2018-04-11T11:22:39.520Z,946.57
2018-04-11T11:23:39.604Z,946.41
2018-04-11T11:24:39.588Z,946.39
2018-04-11T11:25:39.621Z,946.37
2018-04-11T11:26:39.654Z,946.42
2018-04-11T11:27:39.690Z,946.48
2018-04-11T11:28:39.720Z,946.47
2018-04-11T11:29:39.754Z,946.53
2018-04-11T11:30:39.832Z,946.55
2018-04-11T11:31:39.820Z,946.53
2018-04-11T11:32:39.852Z,946.57
2018-04-11T11:33:39.886Z,946.44
2018-04-11T11:34:39.929Z,946.37
2018-04-11T11:35:39.953Z,946.47
2018-04-11T11:36:39.987Z,946.53
2018-04-11T11:37:40.019Z,946.53
2018-04-11T11:38:40.056Z,946.5
2018-04-11T11:39:40.085Z,946.4
2018-04-11T11:40:40.118Z,946.48
2018-04-11T11:41:40.201Z,946.49
2018-04-11T11:42:40.186Z,946.53
2018-04-11T11:43:40.221Z,946.53
2018-04-11T11:44:40.258Z,946.53
2018-04-11T11:45:40.290Z,946.49
2018-04-11T11:46:40.325Z,946.45
2018-04-11T11:47:40.354Z,946.38
2018-04-11T11:48:40.390Z,946.36
2018-04-11T11:49:40.426Z,946.4
2018-04-11T11:50:40.460Z,946.42
2018-04-11T11:51:40.498Z,946.32
2018-04-11T11:52:40.530Z,946.3
2018-04-11T11:53:40.564Z,946.31
2018-04-11T11:54:40.597Z,946.3
2018-04-11T11:55:40.633Z,946.3
2018-04-11T11:56:40.719Z,946.28
2018-04-11T11:57:40.705Z,946.29
2018-04-11T11:58:40.739Z,946.3
2018-04-11T11:59:40.774Z,946.26
2018-04-11T12:00:40.811Z,946.3
2018-04-11T12:01:40.848Z,946.24
2018-04-11T12:02:40.883Z,946.33
2018-04-11T12:03:40.918Z,946.35
2018-04-11T12:04:40.952Z,946.36
2018-04-11T12:05:40.986Z,946.34
2018-04-11T12:06:41.024Z,946.33
2018-04-11T12:07:41.059Z,946.35
2018-04-11T12:08:41.096Z,946.33
2018-04-11T12:09:41.132Z,946.38
2018-04-11T12:10:41.173Z,946.38
2018-04-11T12:11:41.252Z,946.4
2018-04-11T12:12:41.238Z,946.41
2018-04-11T12:13:41.275Z,946.39
2018-04-11T12:14:41.310Z,946.39
2018-04-11T12:15:41.347Z,946.36
2018-04-11T12:16:41.433Z,946.42
2018-04-11T12:17:41.426Z,946.4
2018-04-11T12:18:41.455Z,946.42
2018-04-11T12:19:41.492Z,946.37
2018-04-11T12:20:41.530Z,946.23
2018-04-11T12:21:41.565Z,946.1
2018-04-11T12:22:41.603Z,946.06
2018-04-11T12:23:41.636Z,946.07
2018-04-11T12:24:41.675Z,946.33
2018-04-11T12:25:41.708Z,946.41
2018-04-11T12:26:41.853Z,946.36
2018-04-11T12:27:41.802Z,946.37
2018-04-11T12:28:41.816Z,946.34
2018-04-11T12:29:41.850Z,946.31
2018-04-11T12:30:41.887Z,946.3